createdAt,value
2018-11-25T00:01:37.303Z,96304.77
2018-11-25T00:04:06.624Z,96305.77
2018-11-25T00:06:35.505Z,96306.41
2018-11-25T00:09:04.448Z,96303.53
2018-11-25T00:11:34.274Z,96299.14
2018-11-25T00:14:23.275Z,96292.72
2018-11-25T00:16:51.913Z,96295.38
2018-11-25T00:19:20.609Z,96301.91
2018-11-25T00:21:49.265Z,96303.27
2018-11-25T00:24:17.915Z,96297.33
2018-11-25T00:26:46.604Z,96301.69
2018-11-25T00:29:15.347Z,96297.91
2018-11-25T00:31:44.280Z,96295.48
2018-11-25T00:34:15.462Z,96284.59
2018-11-25T00:36:44.633Z,96285.28
2018-11-25T00:39:13.461Z,96282.58
2018-11-25T00:41:42.381Z,96278.71
2018-11-25T00:44:11.078Z,96277.75
2018-11-25T00:46:39.863Z,96279.33
2018-11-25T00:49:08.622Z,96281.53
2018-11-25T00:51:58.044Z,96275.84
2018-11-25T00:54:28.409Z,96279.34
2018-11-25T00:56:58.045Z,96276.95
2018-11-25T00:59:26.743Z,96269.63
2018-11-25T01:01:55.441Z,96263.44
2018-11-25T01:04:24.090Z,96262.31
2018-11-25T01:06:52.856Z,96268.67
2018-11-25T01:09:21.753Z,96261.92
2018-11-25T01:11:51.630Z,96261.72
2018-11-25T01:14:40.757Z,96256.48
2018-11-25T01:17:09.443Z,96257.96
2018-11-25T01:19:38.108Z,96254.36
2018-11-25T01:22:06.793Z,96259.30
2018-11-25T01:24:35.438Z,96254.27
2018-11-25T01:27:04.309Z,96253.14
2018-11-25T01:29:33.044Z,96250.41
2018-11-25T01:32:02.030Z,96250.67
2018-11-25T01:34:30.995Z,96248.24
2018-11-25T01:37:19.738Z,96249.33
2018-11-25T01:39:49.137Z,96250.30
2018-11-25T01:42:18.035Z,96248.95
2018-11-25T01:44:46.753Z,96251.08
2018-11-25T01:47:15.453Z,96246.99
2018-11-25T01:49:44.138Z,96248.97
2018-11-25T01:52:12.815Z,96242.16
2018-11-25T01:54:41.506Z,96239.91
2018-11-25T01:59:44.818Z,96232.68
2018-11-25T02:02:13.500Z,96228.61
2018-11-25T02:04:43.139Z,96222.86
2018-11-25T02:07:32.217Z,96227.75
2018-11-25T02:10:01.351Z,96221.69
2018-11-25T02:12:30.253Z,96216.02
2018-11-25T02:14:59.180Z,96215.53
2018-11-25T02:17:27.925Z,96219.39
2018-11-25T02:19:56.660Z,96222.95
2018-11-25T02:22:25.396Z,96214.09
2018-11-25T02:24:54.342Z,96221.80
2018-11-25T02:27:23.427Z,96213.86
2018-11-25T02:29:53.601Z,96212.87
2018-11-25T02:32:22.871Z,96213.16
2018-11-25T02:34:51.621Z,96210.05
2018-11-25T02:37:20.304Z,96204.97
2018-11-25T02:40:11.696Z,96203.98
2018-11-25T02:42:40.342Z,96197.80
2018-11-25T02:45:28.889Z,96200.89
2018-11-25T02:47:59.727Z,96194.66
2018-11-25T02:50:29.438Z,96191.71
2018-11-25T02:53:01.926Z,96191.09
2018-11-25T02:55:30.560Z,96187.77
2018-11-25T02:58:00.862Z,96188.90
2018-11-25T03:00:29.775Z,96189.51
2018-11-25T03:03:00.387Z,96181.39
2018-11-25T03:05:48.666Z,96176.31
2018-11-25T03:08:17.553Z,96174.14
2018-11-25T03:10:46.211Z,96172.44
2018-11-25T03:13:15.141Z,96169.63
2018-11-25T03:15:43.876Z,96170.26
2018-11-25T03:18:13.037Z,96167.11
2018-11-25T03:20:43.116Z,96168.14
2018-11-25T03:23:12.809Z,96163.78
2018-11-25T03:25:41.487Z,96164.91
2018-11-25T03:28:11.862Z,96158.87
2018-11-25T03:30:40.453Z,96156.34
2018-11-25T03:33:09.084Z,96152.16
2018-11-25T03:35:37.775Z,96146.98
2018-11-25T03:38:06.654Z,96147.09
2018-11-25T03:40:35.437Z,96148.48
2018-11-25T03:43:04.384Z,96140.72
2018-11-25T03:45:33.268Z,96146.00
2018-11-25T03:48:02.156Z,96148.84
2018-11-25T03:50:31.010Z,96136.16
2018-11-25T03:53:00.083Z,96135.89
2018-11-25T03:55:48.273Z,96136.68
2018-11-25T03:58:17.082Z,96134.34
2018-11-25T04:01:24.471Z,96129.54
2018-11-25T04:06:43.128Z,96127.10
2018-11-25T04:09:12.296Z,96120.77
2018-11-25T04:11:41.240Z,96122.06
2018-11-25T04:14:10.127Z,96121.44
2018-11-25T04:16:58.117Z,96117.59
2018-11-25T04:19:26.761Z,96121.87
2018-11-25T04:21:55.432Z,96120.83
2018-11-25T04:24:24.118Z,96120.08
2018-11-25T04:26:53.684Z,96114.20
2018-11-25T04:29:42.899Z,96113.55
2018-11-25T04:32:11.589Z,96118.19
2018-11-25T04:34:40.278Z,96108.23
2018-11-25T04:37:08.918Z,96113.14
2018-11-25T04:39:37.592Z,96106.14
2018-11-25T04:42:06.335Z,96104.09
2018-11-25T04:44:35.042Z,96101.88
2018-11-25T04:47:03.852Z,96096.90
2018-11-25T04:49:32.500Z,96094.07
2018-11-25T04:52:20.762Z,96091.59
2018-11-25T04:54:51.611Z,96089.23
2018-11-25T04:57:20.371Z,96082.89
2018-11-25T04:59:49.138Z,96085.07
2018-11-25T05:02:17.987Z,96088.20
2018-11-25T05:04:46.765Z,96082.75
2018-11-25T05:07:15.693Z,96076.34
2018-11-25T05:09:44.550Z,96078.05
2018-11-25T05:12:32.693Z,96083.16
2018-11-25T05:15:02.997Z,96076.02
2018-11-25T05:17:31.693Z,96080.12
2018-11-25T05:20:00.593Z,96074.36
2018-11-25T05:22:29.282Z,96071.99
2018-11-25T05:24:57.925Z,96076.06
2018-11-25T05:27:27.111Z,96071.37
2018-11-25T05:29:55.766Z,96080.94
2018-11-25T05:32:24.470Z,96076.94
2018-11-25T05:34:53.211Z,96072.41
2018-11-25T05:37:22.145Z,96076.36
2018-11-25T05:39:51.055Z,96071.29
2018-11-25T05:44:55.462Z,96060.02
2018-11-25T05:47:24.225Z,96064.71
2018-11-25T05:49:53.101Z,96065.48
2018-11-25T05:52:22.485Z,96061.08
2018-11-25T05:57:26.078Z,96062.05
2018-11-25T05:59:54.908Z,96063.84
2018-11-25T06:02:23.604Z,96066.39
2018-11-25T06:04:52.279Z,96060.78
2018-11-25T06:07:21.258Z,96056.76
2018-11-25T06:10:10.123Z,96058.69
2018-11-25T06:12:40.914Z,96059.09
2018-11-25T06:15:28.879Z,96054.67
2018-11-25T06:17:57.747Z,96064.75
2018-11-25T06:20:26.598Z,96051.02
2018-11-25T06:22:55.509Z,96058.69
2018-11-25T06:25:24.265Z,96057.62
2018-11-25T06:27:53.200Z,96052.45
2018-11-25T06:30:22.103Z,96057.72
2018-11-25T06:32:50.884Z,96062.35
2018-11-25T06:35:39.578Z,96060.33
2018-11-25T06:38:08.169Z,96057.39
2018-11-25T06:40:36.855Z,96061.25
2018-11-25T06:43:05.905Z,96063.72
2018-11-25T06:45:35.346Z,96061.77
2018-11-25T06:48:23.295Z,96060.13
2018-11-25T06:50:53.666Z,96060.69
2018-11-25T06:53:23.262Z,96059.77
2018-11-25T06:55:51.952Z,96072.05
2018-11-25T06:58:20.649Z,96075.70
2018-11-25T07:00:49.364Z,96077.31
2018-11-25T07:03:18.021Z,96069.59
2018-11-25T07:05:46.705Z,96068.69
2018-11-25T07:08:16.400Z,96073.00
2018-11-25T07:10:46.635Z,96069.85
2018-11-25T07:13:15.280Z,96067.48
2018-11-25T07:15:43.981Z,96063.51
2018-11-25T07:18:12.641Z,96061.39
2018-11-25T07:20:41.282Z,96059.53
2018-11-25T07:23:09.969Z,96063.44
2018-11-25T07:28:29.195Z,96058.98
2018-11-25T07:30:59.040Z,96058.65
2018-11-25T07:33:27.830Z,96054.61
2018-11-25T07:35:56.583Z,96049.98
2018-11-25T07:38:25.337Z,96053.00
2018-11-25T07:40:54.145Z,96051.08
2018-11-25T07:43:22.841Z,96048.35
2018-11-25T07:45:52.739Z,96050.84
2018-11-25T07:51:15.939Z,96052.24
2018-11-25T07:53:44.627Z,96053.27
2018-11-25T07:56:13.271Z,96048.58
2018-11-25T07:58:42.018Z,96045.39
2018-11-25T08:01:10.867Z,96040.38
2018-11-25T08:03:39.971Z,96045.98
2018-11-25T08:06:29.183Z,96047.25
2018-11-25T08:08:58.846Z,96044.38
2018-11-25T08:11:27.888Z,96040.90
2018-11-25T08:13:56.529Z,96034.23
2018-11-25T08:16:25.409Z,96028.53
2018-11-25T08:18:54.098Z,96026.07
2018-11-25T08:21:23.032Z,96028.34
2018-11-25T08:23:51.851Z,96023.93
2018-11-25T08:26:20.930Z,96022.28
2018-11-25T08:31:44.486Z,96017.72
2018-11-25T08:34:13.386Z,96015.20
2018-11-25T08:36:42.618Z,96002.80
2018-11-25T08:39:30.354Z,96008.06
2018-11-25T08:41:59.913Z,96007.22
2018-11-25T08:44:48.503Z,96005.39
2018-11-25T08:47:37.423Z,95999.24
2018-11-25T08:50:27.235Z,95998.07
2018-11-25T08:52:56.430Z,95989.34
2018-11-25T08:55:26.152Z,95984.86
2018-11-25T08:57:55.281Z,95984.69
2018-11-25T09:00:24.931Z,95973.05
2018-11-25T09:05:43.589Z,95972.25
2018-11-25T09:08:12.872Z,95961.31
2018-11-25T09:10:41.506Z,95954.27
2018-11-25T09:13:10.270Z,95947.19
2018-11-25T09:15:38.964Z,95940.10
2018-11-25T09:18:07.862Z,95940.13
2018-11-25T09:20:55.861Z,95928.68
2018-11-25T09:23:24.588Z,95931.27
2018-11-25T09:25:55.405Z,95931.80
2018-11-25T09:28:24.929Z,95929.27
2018-11-25T09:30:53.505Z,95926.98
2018-11-25T09:33:22.145Z,95917.53
2018-11-25T09:35:50.847Z,95920.07
2018-11-25T09:38:19.497Z,95911.62
2018-11-25T09:40:48.166Z,95919.05
2018-11-25T09:43:16.853Z,95915.70
2018-11-25T09:45:45.503Z,95912.14
2018-11-25T09:48:14.189Z,95905.19
2018-11-25T09:50:42.937Z,95903.61
2018-11-25T09:53:31.979Z,95898.22
2018-11-25T09:56:02.618Z,95892.00
2018-11-25T09:58:31.559Z,95879.62
2018-11-25T10:01:00.404Z,95880.08
2018-11-25T10:03:29.352Z,95884.63
2018-11-25T10:05:58.184Z,95876.34
2018-11-25T10:08:27.076Z,95876.08
2018-11-25T10:10:56.920Z,95878.34
2018-11-25T10:16:19.857Z,95875.73
2018-11-25T10:18:48.538Z,95865.38
2018-11-25T10:21:17.232Z,95865.38
2018-11-25T10:23:45.910Z,95855.00
2018-11-25T10:26:14.663Z,95849.09
2018-11-25T10:28:43.860Z,95850.98
2018-11-25T10:34:06.815Z,95853.66
2018-11-25T10:36:35.675Z,95847.41
2018-11-25T10:39:05.139Z,95840.39
2018-11-25T10:41:33.884Z,95841.52
2018-11-25T10:44:02.794Z,95841.65
2018-11-25T10:46:32.685Z,95841.52
2018-11-25T10:49:40.268Z,95834.82
2018-11-25T10:52:10.234Z,95830.66
2018-11-25T10:54:39.061Z,95830.52
2018-11-25T10:57:07.883Z,95833.81
2018-11-25T10:59:36.777Z,95826.00
2018-11-25T11:02:24.491Z,95823.92
2018-11-25T11:05:12.352Z,95829.79
2018-11-25T11:07:59.978Z,95820.75
2018-11-25T11:10:28.766Z,95820.52
2018-11-25T11:12:58.843Z,95818.38
2018-11-25T11:15:28.553Z,95816.37
2018-11-25T11:17:57.374Z,95806.95
2018-11-25T11:20:26.035Z,95804.13
2018-11-25T11:22:54.731Z,95806.73
2018-11-25T11:25:23.603Z,95806.45
2018-11-25T11:27:52.533Z,95796.22
2018-11-25T11:30:21.428Z,95788.88
2018-11-25T11:32:51.193Z,95785.59
2018-11-25T11:38:48.381Z,95770.45
2018-11-25T11:41:18.323Z,95766.44
2018-11-25T11:43:47.061Z,95760.64
2018-11-25T11:46:15.913Z,95763.67
2018-11-25T11:48:44.649Z,95761.27
2018-11-25T11:51:13.429Z,95765.59
2018-11-25T11:53:42.260Z,95766.33
2018-11-25T11:58:46.112Z,95761.49
2018-11-25T12:04:09.765Z,95759.32
2018-11-25T12:06:38.563Z,95765.16
2018-11-25T12:09:09.829Z,95762.03
2018-11-25T12:11:38.687Z,95763.72
2018-11-25T12:14:07.441Z,95759.88
2018-11-25T12:16:36.393Z,95761.22
2018-11-25T12:19:06.347Z,95764.38
2018-11-25T12:21:35.241Z,95763.45
2018-11-25T12:24:23.563Z,95760.96
2018-11-25T12:26:52.577Z,95766.75
2018-11-25T12:29:41.159Z,95774.90
2018-11-25T12:32:30.679Z,95765.83
2018-11-25T12:35:19.292Z,95761.70
2018-11-25T12:37:48.351Z,95750.97
2018-11-25T12:40:36.410Z,95755.91
2018-11-25T12:43:05.427Z,95754.23
2018-11-25T12:45:34.307Z,95762.52
2018-11-25T12:48:03.158Z,95756.11
2018-11-25T12:50:32.060Z,95758.32
2018-11-25T12:53:00.933Z,95755.81
2018-11-25T12:55:29.882Z,95754.50
2018-11-25T12:57:58.856Z,95759.10
2018-11-25T13:00:47.685Z,95758.32
2018-11-25T13:03:16.707Z,95758.92
2018-11-25T13:05:46.592Z,95758.14
2018-11-25T13:08:14.861Z,95751.69
2018-11-25T13:10:44.577Z,95755.51
2018-11-25T13:13:33.174Z,95755.59
2018-11-25T13:16:01.952Z,95751.53
2018-11-25T13:18:30.809Z,95748.16
2018-11-25T13:20:59.723Z,95754.39
2018-11-25T13:23:28.515Z,95756.01
2018-11-25T13:25:57.413Z,95747.23
2018-11-25T13:28:27.166Z,95747.09
2018-11-25T13:30:55.973Z,95736.62
2018-11-25T13:33:44.552Z,95740.33
2018-11-25T13:36:14.176Z,95744.94
2018-11-25T13:38:43.078Z,95742.89
2018-11-25T13:41:12.229Z,95747.16
2018-11-25T13:46:16.787Z,95741.64
2018-11-25T13:48:45.667Z,95750.41
2018-11-25T13:51:14.588Z,95747.54
2018-11-25T13:53:43.450Z,95745.59
2018-11-25T13:56:12.220Z,95749.97
2018-11-25T13:58:41.502Z,95742.58
2018-11-25T14:06:52.842Z,95749.61
2018-11-25T14:09:22.215Z,95749.61
2018-11-25T14:11:50.961Z,95751.73
2018-11-25T14:14:19.822Z,95747.93
2018-11-25T14:16:48.943Z,95754.10
2018-11-25T14:19:37.684Z,95754.13
2018-11-25T14:25:16.021Z,95748.79
2018-11-25T14:27:45.061Z,95745.98
2018-11-25T14:30:27.503Z,95747.79
2018-11-25T14:32:56.180Z,95749.58
2018-11-25T14:35:24.815Z,95747.28
2018-11-25T14:37:53.497Z,95752.64
2018-11-25T14:40:22.129Z,95748.83
2018-11-25T14:42:51.380Z,95746.76
2018-11-25T14:45:22.058Z,95748.81
2018-11-25T14:47:50.726Z,95750.08
2018-11-25T14:50:20.366Z,95748.28
2018-11-25T14:52:52.839Z,95750.59
2018-11-25T14:55:22.112Z,95748.53
2018-11-25T14:58:11.251Z,95757.92
2018-11-25T15:00:59.724Z,95757.39
2018-11-25T15:03:30.379Z,95748.97
2018-11-25T15:05:59.101Z,95747.94
2018-11-25T15:08:28.160Z,95741.32
2018-11-25T15:10:56.891Z,95735.45
2018-11-25T15:13:25.683Z,95733.39
2018-11-25T15:15:55.045Z,95731.36
2018-11-25T15:18:43.096Z,95738.23
2018-11-25T15:21:13.300Z,95729.81
2018-11-25T15:23:42.310Z,95731.61
2018-11-25T15:26:13.091Z,95722.94
2018-11-25T15:28:41.745Z,95722.66
2018-11-25T15:31:10.551Z,95723.94
2018-11-25T15:33:39.426Z,95721.38
2018-11-25T15:36:08.335Z,95720.09
2018-11-25T15:38:37.125Z,95715.00
2018-11-25T15:41:06.069Z,95715.47
2018-11-25T15:43:34.859Z,95711.38
2018-11-25T15:46:03.779Z,95707.52
2018-11-25T15:48:33.157Z,95709.83
2018-11-25T15:51:01.904Z,95711.12
2018-11-25T15:53:30.553Z,95706.77
2018-11-25T15:56:01.271Z,95710.86
2018-11-25T15:58:29.931Z,95712.36
2018-11-25T16:00:58.604Z,95714.91
2018-11-25T16:03:27.269Z,95721.77
2018-11-25T16:06:16.485Z,95723.34
2018-11-25T16:08:45.300Z,95723.59
2018-11-25T16:11:14.109Z,95725.37
2018-11-25T16:13:42.884Z,95730.97
2018-11-25T16:16:11.770Z,95727.92
2018-11-25T16:18:40.667Z,95733.01
2018-11-25T16:21:09.563Z,95727.89
2018-11-25T16:23:38.455Z,95729.97
2018-11-25T16:26:27.603Z,95730.20
2018-11-25T16:28:58.747Z,95734.01
2018-11-25T16:31:27.600Z,95724.58
2018-11-25T16:33:56.398Z,95727.10
2018-11-25T16:36:25.311Z,95723.50
2018-11-25T16:38:54.122Z,95730.95
2018-11-25T16:41:22.853Z,95730.44
2018-11-25T16:43:51.736Z,95729.41
2018-11-25T16:46:20.685Z,95728.69
2018-11-25T16:48:49.416Z,95734.77
2018-11-25T16:51:18.247Z,95734.28
2018-11-25T16:53:47.148Z,95735.55
2018-11-25T16:56:15.928Z,95739.82
2018-11-25T16:58:44.722Z,95734.77
2018-11-25T17:01:33.840Z,95732.77
2018-11-25T17:04:24.367Z,95731.19
2018-11-25T17:06:53.783Z,95729.92
2018-11-25T17:09:22.521Z,95730.45
2018-11-25T17:11:51.415Z,95725.87
2018-11-25T17:14:20.343Z,95718.45
2018-11-25T17:16:49.198Z,95718.69
2018-11-25T17:19:37.653Z,95724.81
2018-11-25T17:22:06.237Z,95723.55
2018-11-25T17:24:35.159Z,95729.16
2018-11-25T17:27:04.119Z,95729.44
2018-11-25T17:29:33.700Z,95727.92
2018-11-25T17:35:31.876Z,95723.31
2018-11-25T17:38:00.852Z,95718.18
2018-11-25T17:40:29.739Z,95713.10
2018-11-25T17:42:58.629Z,95722.57
2018-11-25T17:45:27.485Z,95715.89
2018-11-25T17:47:56.371Z,95718.22
2018-11-25T17:50:27.152Z,95716.16
2018-11-25T17:59:13.629Z,95706.23
2018-11-25T18:01:42.542Z,95712.84
2018-11-25T18:04:11.287Z,95705.17
2018-11-25T18:06:40.118Z,95708.80
2018-11-25T18:09:12.086Z,95704.16
2018-11-25T18:11:41.005Z,95706.19
2018-11-25T18:14:10.528Z,95711.58
2018-11-25T18:16:39.508Z,95714.43
2018-11-25T18:19:35.811Z,95714.89
2018-11-25T18:22:25.179Z,95717.43
2018-11-25T18:24:54.106Z,95716.41
2018-11-25T18:30:21.083Z,95711.63
2018-11-25T18:32:50.940Z,95712.56
2018-11-25T18:35:19.744Z,95709.00
2018-11-25T18:37:48.588Z,95706.74
2018-11-25T18:40:17.370Z,95708.98
2018-11-25T18:45:21.742Z,95712.12
2018-11-25T18:48:10.515Z,95711.34
2018-11-25T18:51:19.890Z,95705.27
2018-11-25T18:54:12.161Z,95708.04
2018-11-25T18:56:59.944Z,95701.91
2018-11-25T19:03:07.583Z,95696.80
2018-11-25T19:06:00.672Z,95695.80
2018-11-25T19:08:56.487Z,95691.70
2018-11-25T19:11:45.444Z,95698.84
2018-11-25T19:14:39.569Z,95701.63
2018-11-25T19:17:30.708Z,95699.57
2018-11-25T19:20:04.260Z,95701.87
2018-11-25T19:22:52.918Z,95694.02
2018-11-25T19:25:21.723Z,95698.09
2018-11-25T19:27:50.798Z,95691.72
2018-11-25T19:30:26.433Z,95691.70
2018-11-25T19:32:51.469Z,95688.66
2018-11-25T19:35:21.337Z,95688.67
2018-11-25T19:37:50.904Z,95680.50
2018-11-25T19:43:16.615Z,95683.05
2018-11-25T19:46:26.022Z,95678.19
2018-11-25T19:49:14.982Z,95673.84
2018-11-25T19:55:43.749Z,95665.16
2018-11-25T19:58:14.603Z,95659.83
2018-11-25T20:01:04.362Z,95666.19
2018-11-25T20:03:52.993Z,95666.67
2018-11-25T20:07:04.024Z,95666.69
2018-11-25T20:10:12.747Z,95664.37
2018-11-25T20:13:05.292Z,95665.64
2018-11-25T20:22:14.456Z,95664.33
2018-11-25T20:25:02.416Z,95665.31
2018-11-25T20:27:54.354Z,95669.45
2018-11-25T20:30:46.332Z,95663.60
2018-11-25T20:33:33.987Z,95666.39
2018-11-25T20:36:02.650Z,95665.12
2018-11-25T20:38:51.870Z,95673.02
2018-11-25T20:41:20.529Z,95669.70
2018-11-25T20:43:49.357Z,95674.82
2018-11-25T20:46:37.009Z,95677.35
2018-11-25T20:49:05.791Z,95676.33
2018-11-25T20:51:53.565Z,95670.90
2018-11-25T20:54:22.438Z,95670.91
2018-11-25T20:56:51.367Z,95675.52
2018-11-25T20:59:20.072Z,95682.90
2018-11-25T21:01:56.498Z,95681.09
2018-11-25T21:04:44.334Z,95682.16
2018-11-25T21:07:12.993Z,95675.97
2018-11-25T21:09:41.919Z,95673.94
2018-11-25T21:12:10.764Z,95676.23
2018-11-25T21:17:14.371Z,95670.88
2018-11-25T21:19:43.166Z,95668.55
2018-11-25T21:22:12.099Z,95674.66
2018-11-25T21:24:41.060Z,95678.42
2018-11-25T21:27:29.049Z,95671.05
2018-11-25T21:29:57.883Z,95676.10
2018-11-25T21:35:02.680Z,95661.50
2018-11-25T21:37:31.363Z,95662.76
2018-11-25T21:40:00.263Z,95661.20
2018-11-25T21:42:29.600Z,95659.89
2018-11-25T21:44:58.021Z,95660.47
2018-11-25T21:47:26.812Z,95656.11
2018-11-25T21:49:55.650Z,95658.84
2018-11-25T21:52:24.560Z,95652.27
2018-11-25T21:58:02.094Z,95648.95
2018-11-25T22:00:31.874Z,95646.66
2018-11-25T22:03:19.864Z,95651.77
2018-11-25T22:05:48.698Z,95652.50
2018-11-25T22:08:17.495Z,95644.34
2018-11-25T22:10:46.445Z,95651.96
2018-11-25T22:13:34.389Z,95645.34
2018-11-25T22:16:05.373Z,95640.73
2018-11-25T22:18:34.082Z,95642.84
2018-11-25T22:21:02.874Z,95649.36
2018-11-25T22:23:32.003Z,95647.84
2018-11-25T22:26:00.757Z,95649.71
2018-11-25T22:28:29.621Z,95648.93
2018-11-25T22:41:57.567Z,95654.77
2018-11-25T22:44:26.436Z,95657.84
2018-11-25T22:49:29.979Z,95659.14
2018-11-25T22:51:58.905Z,95657.05
2018-11-25T22:54:27.835Z,95659.58
2018-11-25T22:56:56.511Z,95660.32
2018-11-25T22:59:26.558Z,95662.59
2018-11-25T23:02:14.492Z,95665.16
2018-11-25T23:05:21.669Z,95669.06
2018-11-25T23:07:51.873Z,95663.71
2018-11-25T23:10:41.014Z,95666.70
2018-11-25T23:13:09.869Z,95666.70
2018-11-25T23:15:38.719Z,95667.92
2018-11-25T23:18:07.494Z,95665.64
2018-11-25T23:26:59.555Z,95669.48
2018-11-25T23:29:28.403Z,95669.19
2018-11-25T23:31:57.240Z,95668.72
2018-11-25T23:34:26.116Z,95664.14
2018-11-25T23:37:15.395Z,95665.17
2018-11-25T23:40:04.284Z,95663.89
2018-11-25T23:42:53.522Z,95663.89
2018-11-25T23:45:41.621Z,95658.55
2018-11-25T23:48:10.451Z,95657.53
2018-11-25T23:50:39.297Z,95652.69
2018-11-25T23:53:08.228Z,95654.17
2018-11-25T23:55:37.073Z,95649.64
2018-11-25T23:58:06.005Z,95648.06
